Marshfield, Vermont
Current Conditions -  °F | °C
As of 6:51 PM on Monday 24 Nov 2014 (Local Time) from KMPV Reporting Station
Clear Clear  
Wind Chill: 58°   Ceiling: Unl
Heat Index: 58°   Visibility: 10mi
Dew Point: 53°   Wind: 18mph
Humidity: 84%   Direction: 170°S
Pressure: 29.48"   Gusts: 25mph
Location:  44.35°N, 72.35°W
Report Text: KMPV 242351Z AUTO 17016G22KT 10SM CLR 14/12 A2948 RMK AO2 SLP985 T01440117 10161 20139 51008
Loading
Personal Weather Stations






























Interactive Weather Map New forecast layout! Learn more

10-Day Weather Forecast

Advertisements
Track Severe Weather on mobile